sensor_id;sensor_type;location;lat;lon;timestamp;P1;durP1;ratioP1;P2;durP2;ratioP2
42124;SDS011;27787;44.594;11.046;2022-08-03T00:01:57;6.45;;;4.18;;
42124;SDS011;27787;44.594;11.046;2022-08-03T00:04:42;8.57;;;4.10;;
42124;SDS011;27787;44.594;11.046;2022-08-03T00:07:25;10.32;;;4.45;;
42124;SDS011;27787;44.594;11.046;2022-08-03T00:10:11;8.93;;;3.33;;
42124;SDS011;27787;44.594;11.046;2022-08-03T00:12:56;5.13;;;3.05;;
42124;SDS011;27787;44.594;11.046;2022-08-03T00:15:41;7.65;;;3.85;;
42124;SDS011;27787;44.594;11.046;2022-08-03T00:18:25;4.80;;;3.35;;
42124;SDS011;27787;44.594;11.046;2022-08-03T00:21:10;7.80;;;4.10;;
42124;SDS011;27787;44.594;11.046;2022-08-03T00:23:55;10.27;;;4.43;;
42124;SDS011;27787;44.594;11.046;2022-08-03T00:26:39;9.25;;;4.78;;
42124;SDS011;27787;44.594;11.046;2022-08-03T00:29:24;8.13;;;3.70;;
42124;SDS011;27787;44.594;11.046;2022-08-03T00:32:08;4.82;;;3.65;;
42124;SDS011;27787;44.594;11.046;2022-08-03T00:34:52;5.90;;;3.65;;
42124;SDS011;27787;44.594;11.046;2022-08-03T00:37:36;8.88;;;2.40;;
42124;SDS011;27787;44.594;11.046;2022-08-03T00:40:20;4.75;;;2.55;;
42124;SDS011;27787;44.594;11.046;2022-08-03T00:43:05;5.45;;;3.10;;
42124;SDS011;27787;44.594;11.046;2022-08-03T00:45:50;3.40;;;2.28;;
42124;SDS011;27787;44.594;11.046;2022-08-03T00:48:34;5.43;;;2.25;;
42124;SDS011;27787;44.594;11.046;2022-08-03T00:51:18;5.28;;;2.25;;
42124;SDS011;27787;44.594;11.046;2022-08-03T00:54:04;6.72;;;2.22;;
42124;SDS011;27787;44.594;11.046;2022-08-03T00:56:48;5.18;;;3.03;;
42124;SDS011;27787;44.594;11.046;2022-08-03T00:59:32;3.35;;;2.30;;
42124;SDS011;27787;44.594;11.046;2022-08-03T01:02:17;5.90;;;2.40;;
42124;SDS011;27787;44.594;11.046;2022-08-03T01:05:02;4.18;;;2.22;;
42124;SDS011;27787;44.594;11.046;2022-08-03T01:16:47;4.50;;;2.38;;
42124;SDS011;27787;44.594;11.046;2022-08-03T01:26:11;5.65;;;2.42;;
42124;SDS011;27787;44.594;11.046;2022-08-03T01:31:58;3.08;;;2.15;;
42124;SDS011;27787;44.594;11.046;2022-08-03T01:34:54;3.23;;;2.43;;
42124;SDS011;27787;44.594;11.046;2022-08-03T01:37:51;3.67;;;2.38;;
42124;SDS011;27787;44.594;11.046;2022-08-03T01:40:39;3.63;;;2.65;;
42124;SDS011;27787;44.594;11.046;2022-08-03T01:43:26;5.13;;;2.60;;
42124;SDS011;27787;44.594;11.046;2022-08-03T01:46:13;6.97;;;2.45;;
42124;SDS011;27787;44.594;11.046;2022-08-03T01:48:58;4.35;;;2.80;;
42124;SDS011;27787;44.594;11.046;2022-08-03T01:51:44;4.07;;;2.15;;
42124;SDS011;27787;44.594;11.046;2022-08-03T01:54:35;3.80;;;2.10;;
42124;SDS011;27787;44.594;11.046;2022-08-03T01:57:23;3.08;;;2.40;;
42124;SDS011;27787;44.594;11.046;2022-08-03T02:00:10;3.55;;;2.42;;
42124;SDS011;27787;44.594;11.046;2022-08-03T02:02:55;2.97;;;2.53;;
42124;SDS011;27787;44.594;11.046;2022-08-03T02:05:42;2.80;;;2.15;;
42124;SDS011;27787;44.594;11.046;2022-08-03T02:08:27;4.47;;;2.28;;
42124;SDS011;27787;44.594;11.046;2022-08-03T02:11:15;3.53;;;2.20;;
42124;SDS011;27787;44.594;11.046;2022-08-03T02:14:00;2.53;;;2.00;;
42124;SDS011;27787;44.594;11.046;2022-08-03T02:16:46;6.57;;;2.00;;
42124;SDS011;27787;44.594;11.046;2022-08-03T02:19:32;4.32;;;2.45;;
42124;SDS011;27787;44.594;11.046;2022-08-03T02:22:18;5.03;;;2.33;;
42124;SDS011;27787;44.594;11.046;2022-08-03T02:25:02;3.45;;;2.13;;
42124;SDS011;27787;44.594;11.046;2022-08-03T02:27:50;3.70;;;2.20;;
42124;SDS011;27787;44.594;11.046;2022-08-03T02:30:38;5.57;;;2.67;;
42124;SDS011;27787;44.594;11.046;2022-08-03T02:33:27;14.85;;;2.50;;
42124;SDS011;27787;44.594;11.046;2022-08-03T02:36:15;3.58;;;1.80;;
42124;SDS011;27787;44.594;11.046;2022-08-03T02:39:05;7.00;;;2.20;;
42124;SDS011;27787;44.594;11.046;2022-08-03T02:41:53;4.25;;;1.90;;
42124;SDS011;27787;44.594;11.046;2022-08-03T02:44:44;3.75;;;2.33;;
42124;SDS011;27787;44.594;11.046;2022-08-03T02:47:32;3.22;;;2.17;;
42124;SDS011;27787;44.594;11.046;2022-08-03T02:50:19;2.05;;;1.70;;
42124;SDS011;27787;44.594;11.046;2022-08-03T02:53:05;2.78;;;2.20;;
42124;SDS011;27787;44.594;11.046;2022-08-03T02:55:50;2.92;;;2.22;;
42124;SDS011;27787;44.594;11.046;2022-08-03T02:58:35;2.72;;;2.03;;
42124;SDS011;27787;44.594;11.046;2022-08-03T03:01:21;2.67;;;2.05;;
42124;SDS011;27787;44.594;11.046;2022-08-03T03:04:08;5.30;;;2.30;;
42124;SDS011;27787;44.594;11.046;2022-08-03T03:06:54;6.20;;;2.10;;
42124;SDS011;27787;44.594;11.046;2022-08-03T03:09:40;3.10;;;2.33;;
42124;SDS011;27787;44.594;11.046;2022-08-03T03:12:25;3.95;;;2.42;;
42124;SDS011;27787;44.594;11.046;2022-08-03T03:15:10;2.92;;;1.95;;
42124;SDS011;27787;44.594;11.046;2022-08-03T03:17:54;4.40;;;2.03;;
42124;SDS011;27787;44.594;11.046;2022-08-03T03:23:36;2.97;;;2.45;;
42124;SDS011;27787;44.594;11.046;2022-08-03T03:26:22;2.53;;;1.98;;
42124;SDS011;27787;44.594;11.046;2022-08-03T03:29:06;4.65;;;2.60;;
42124;SDS011;27787;44.594;11.046;2022-08-03T03:31:52;3.72;;;2.38;;
42124;SDS011;27787;44.594;11.046;2022-08-03T03:34:36;4.40;;;2.60;;
42124;SDS011;27787;44.594;11.046;2022-08-03T03:37:21;5.03;;;2.97;;
42124;SDS011;27787;44.594;11.046;2022-08-03T03:40:05;3.67;;;2.42;;
42124;SDS011;27787;44.594;11.046;2022-08-03T03:42:51;5.13;;;3.05;;
42124;SDS011;27787;44.594;11.046;2022-08-03T03:45:35;5.80;;;2.25;;
42124;SDS011;27787;44.594;11.046;2022-08-03T03:48:20;3.97;;;2.67;;
42124;SDS011;27787;44.594;11.046;2022-08-03T03:51:04;3.27;;;2.37;;
42124;SDS011;27787;44.594;11.046;2022-08-03T03:53:57;7.35;;;2.50;;
42124;SDS011;27787;44.594;11.046;2022-08-03T03:56:42;3.97;;;2.55;;
42124;SDS011;27787;44.594;11.046;2022-08-03T03:59:26;3.40;;;2.60;;
42124;SDS011;27787;44.594;11.046;2022-08-03T04:02:11;4.57;;;2.40;;
42124;SDS011;27787;44.594;11.046;2022-08-03T04:04:55;6.38;;;2.38;;
42124;SDS011;27787;44.594;11.046;2022-08-03T04:08:08;4.43;;;2.40;;
42124;SDS011;27787;44.594;11.046;2022-08-03T04:11:15;3.28;;;2.63;;
42124;SDS011;27787;44.594;11.046;2022-08-03T04:14:45;2.72;;;2.28;;
42124;SDS011;27787;44.594;11.046;2022-08-03T04:17:16;7.22;;;2.80;;
42124;SDS011;27787;44.594;11.046;2022-08-03T04:20:02;3.95;;;2.25;;
42124;SDS011;27787;44.594;11.046;2022-08-03T04:22:48;3.70;;;2.75;;
42124;SDS011;27787;44.594;11.046;2022-08-03T04:25:34;7.03;;;2.50;;
42124;SDS011;27787;44.594;11.046;2022-08-03T04:28:22;4.13;;;3.05;;
42124;SDS011;27787;44.594;11.046;2022-08-03T04:31:06;6.00;;;3.63;;
42124;SDS011;27787;44.594;11.046;2022-08-03T04:33:52;5.03;;;3.80;;
42124;SDS011;27787;44.594;11.046;2022-08-03T04:36:45;6.53;;;3.70;;
42124;SDS011;27787;44.594;11.046;2022-08-03T04:39:32;5.32;;;3.63;;
42124;SDS011;27787;44.594;11.046;2022-08-03T04:42:19;11.35;;;4.78;;
42124;SDS011;27787;44.594;11.046;2022-08-03T04:45:05;5.45;;;4.80;;
42124;SDS011;27787;44.594;11.046;2022-08-03T04:47:50;7.03;;;4.85;;
42124;SDS011;27787;44.594;11.046;2022-08-03T04:50:35;9.90;;;4.35;;
42124;SDS011;27787;44.594;11.046;2022-08-03T04:53:22;6.85;;;4.43;;
42124;SDS011;27787;44.594;11.046;2022-08-03T04:56:07;10.32;;;4.22;;
42124;SDS011;27787;44.594;11.046;2022-08-03T04:58:51;10.68;;;4.10;;
42124;SDS011;27787;44.594;11.046;2022-08-03T05:01:36;11.15;;;4.30;;
42124;SDS011;27787;44.594;11.046;2022-08-03T05:04:23;5.20;;;3.88;;
42124;SDS011;27787;44.594;11.046;2022-08-03T05:07:07;5.75;;;3.88;;
42124;SDS011;27787;44.594;11.046;2022-08-03T05:09:51;6.07;;;3.92;;
42124;SDS011;27787;44.594;11.046;2022-08-03T05:12:35;11.07;;;5.17;;
42124;SDS011;27787;44.594;11.046;2022-08-03T05:15:19;7.93;;;4.75;;
42124;SDS011;27787;44.594;11.046;2022-08-03T05:18:04;8.33;;;4.47;;
42124;SDS011;27787;44.594;11.046;2022-08-03T05:20:49;9.32;;;4.60;;
42124;SDS011;27787;44.594;11.046;2022-08-03T05:23:33;6.20;;;3.97;;
42124;SDS011;27787;44.594;11.046;2022-08-03T05:26:18;9.77;;;4.65;;
42124;SDS011;27787;44.594;11.046;2022-08-03T05:29:02;6.40;;;4.47;;
42124;SDS011;27787;44.594;11.046;2022-08-03T05:31:46;8.02;;;4.63;;
42124;SDS011;27787;44.594;11.046;2022-08-03T05:34:51;7.57;;;4.47;;
42124;SDS011;27787;44.594;11.046;2022-08-03T05:37:36;8.63;;;5.23;;
42124;SDS011;27787;44.594;11.046;2022-08-03T05:40:20;12.32;;;5.55;;
42124;SDS011;27787;44.594;11.046;2022-08-03T05:43:04;9.65;;;5.60;;
42124;SDS011;27787;44.594;11.046;2022-08-03T05:45:48;8.30;;;5.80;;
42124;SDS011;27787;44.594;11.046;2022-08-03T05:48:32;5.72;;;4.70;;
42124;SDS011;27787;44.594;11.046;2022-08-03T05:51:17;7.03;;;4.47;;
42124;SDS011;27787;44.594;11.046;2022-08-03T05:54:01;10.10;;;5.70;;
42124;SDS011;27787;44.594;11.046;2022-08-03T05:56:46;9.32;;;5.10;;
42124;SDS011;27787;44.594;11.046;2022-08-03T05:59:30;11.90;;;4.93;;
42124;SDS011;27787;44.594;11.046;2022-08-03T06:02:14;8.18;;;5.15;;
42124;SDS011;27787;44.594;11.046;2022-08-03T06:04:58;12.30;;;5.00;;
42124;SDS011;27787;44.594;11.046;2022-08-03T06:07:43;10.65;;;4.82;;
42124;SDS011;27787;44.594;11.046;2022-08-03T06:10:27;7.20;;;4.30;;
42124;SDS011;27787;44.594;11.046;2022-08-03T06:13:11;6.03;;;4.32;;
42124;SDS011;27787;44.594;11.046;2022-08-03T06:15:55;7.65;;;4.32;;
42124;SDS011;27787;44.594;11.046;2022-08-03T06:18:40;7.68;;;4.88;;
42124;SDS011;27787;44.594;11.046;2022-08-03T06:21:24;12.23;;;4.68;;
42124;SDS011;27787;44.594;11.046;2022-08-03T06:24:08;7.97;;;5.00;;
42124;SDS011;27787;44.594;11.046;2022-08-03T06:26:53;14.82;;;5.00;;
42124;SDS011;27787;44.594;11.046;2022-08-03T06:29:37;6.63;;;4.18;;
42124;SDS011;27787;44.594;11.046;2022-08-03T06:32:21;6.63;;;4.25;;
42124;SDS011;27787;44.594;11.046;2022-08-03T06:35:06;8.60;;;4.97;;
42124;SDS011;27787;44.594;11.046;2022-08-03T06:37:51;7.45;;;4.97;;
42124;SDS011;27787;44.594;11.046;2022-08-03T06:40:36;14.13;;;5.30;;
42124;SDS011;27787;44.594;11.046;2022-08-03T06:43:23;9.88;;;5.20;;
42124;SDS011;27787;44.594;11.046;2022-08-03T06:46:08;5.70;;;4.60;;
42124;SDS011;27787;44.594;11.046;2022-08-03T06:48:53;6.93;;;4.35;;
42124;SDS011;27787;44.594;11.046;2022-08-03T06:51:39;11.25;;;4.50;;
42124;SDS011;27787;44.594;11.046;2022-08-03T06:54:23;13.03;;;4.47;;
42124;SDS011;27787;44.594;11.046;2022-08-03T06:57:08;5.68;;;4.63;;
42124;SDS011;27787;44.594;11.046;2022-08-03T06:59:54;7.47;;;4.70;;
42124;SDS011;27787;44.594;11.046;2022-08-03T07:02:44;7.97;;;4.60;;
42124;SDS011;27787;44.594;11.046;2022-08-03T07:05:29;9.40;;;4.97;;
42124;SDS011;27787;44.594;11.046;2022-08-03T07:08:16;9.60;;;4.78;;
42124;SDS011;27787;44.594;11.046;2022-08-03T07:11:00;8.70;;;5.27;;
42124;SDS011;27787;44.594;11.046;2022-08-03T07:13:44;7.90;;;4.70;;
42124;SDS011;27787;44.594;11.046;2022-08-03T07:16:29;8.10;;;5.55;;
42124;SDS011;27787;44.594;11.046;2022-08-03T07:19:14;15.20;;;5.32;;
42124;SDS011;27787;44.594;11.046;2022-08-03T07:21:58;5.88;;;4.72;;
42124;SDS011;27787;44.594;11.046;2022-08-03T07:24:46;10.15;;;4.82;;
42124;SDS011;27787;44.594;11.046;2022-08-03T07:27:31;7.93;;;5.15;;
42124;SDS011;27787;44.594;11.046;2022-08-03T07:30:16;5.82;;;4.38;;
42124;SDS011;27787;44.594;11.046;2022-08-03T07:33:00;7.15;;;4.35;;
42124;SDS011;27787;44.594;11.046;2022-08-03T07:35:44;14.73;;;5.03;;
42124;SDS011;27787;44.594;11.046;2022-08-03T07:38:28;6.65;;;4.68;;
42124;SDS011;27787;44.594;11.046;2022-08-03T07:41:13;10.65;;;6.45;;
42124;SDS011;27787;44.594;11.046;2022-08-03T07:43:57;10.98;;;5.75;;
42124;SDS011;27787;44.594;11.046;2022-08-03T07:46:41;8.35;;;4.93;;
42124;SDS011;27787;44.594;11.046;2022-08-03T07:49:25;10.25;;;4.68;;
42124;SDS011;27787;44.594;11.046;2022-08-03T07:52:09;8.20;;;4.10;;
42124;SDS011;27787;44.594;11.046;2022-08-03T07:55:12;10.45;;;4.80;;
42124;SDS011;27787;44.594;11.046;2022-08-03T07:58:04;11.32;;;5.35;;
42124;SDS011;27787;44.594;11.046;2022-08-03T08:00:50;13.20;;;4.45;;
42124;SDS011;27787;44.594;11.046;2022-08-03T08:03:35;9.55;;;4.97;;
42124;SDS011;27787;44.594;11.046;2022-08-03T08:06:19;6.43;;;3.90;;
42124;SDS011;27787;44.594;11.046;2022-08-03T08:09:04;6.15;;;4.03;;
42124;SDS011;27787;44.594;11.046;2022-08-03T08:11:48;14.32;;;4.93;;
42124;SDS011;27787;44.594;11.046;2022-08-03T08:14:33;7.03;;;4.65;;
42124;SDS011;27787;44.594;11.046;2022-08-03T08:20:02;15.82;;;4.40;;
42124;SDS011;27787;44.594;11.046;2022-08-03T08:22:46;11.18;;;3.75;;
42124;SDS011;27787;44.594;11.046;2022-08-03T08:25:31;7.32;;;3.70;;
42124;SDS011;27787;44.594;11.046;2022-08-03T08:28:16;12.65;;;3.95;;
42124;SDS011;27787;44.594;11.046;2022-08-03T08:31:01;6.13;;;3.08;;
42124;SDS011;27787;44.594;11.046;2022-08-03T08:33:46;5.18;;;3.35;;
42124;SDS011;27787;44.594;11.046;2022-08-03T08:36:31;4.88;;;3.33;;
42124;SDS011;27787;44.594;11.046;2022-08-03T08:39:18;6.63;;;2.85;;
42124;SDS011;27787;44.594;11.046;2022-08-03T08:42:02;4.05;;;2.40;;
42124;SDS011;27787;44.594;11.046;2022-08-03T08:44:46;3.55;;;2.30;;
42124;SDS011;27787;44.594;11.046;2022-08-03T08:47:31;2.95;;;2.20;;
42124;SDS011;27787;44.594;11.046;2022-08-03T08:50:20;2.35;;;2.00;;
42124;SDS011;27787;44.594;11.046;2022-08-03T08:53:07;2.38;;;2.00;;
42124;SDS011;27787;44.594;11.046;2022-08-03T08:55:58;5.97;;;2.40;;
42124;SDS011;27787;44.594;11.046;2022-08-03T08:58:50;3.13;;;2.17;;
42124;SDS011;27787;44.594;11.046;2022-08-03T09:01:36;3.05;;;1.88;;
42124;SDS011;27787;44.594;11.046;2022-08-03T09:04:20;4.50;;;2.00;;
42124;SDS011;27787;44.594;11.046;2022-08-03T09:07:05;2.55;;;1.90;;
42124;SDS011;27787;44.594;11.046;2022-08-03T09:09:49;4.32;;;2.30;;
42124;SDS011;27787;44.594;11.046;2022-08-03T09:12:50;6.13;;;2.40;;
42124;SDS011;27787;44.594;11.046;2022-08-03T09:15:35;3.20;;;2.05;;
42124;SDS011;27787;44.594;11.046;2022-08-03T09:18:28;2.40;;;1.90;;
42124;SDS011;27787;44.594;11.046;2022-08-03T09:24:07;2.90;;;1.90;;
42124;SDS011;27787;44.594;11.046;2022-08-03T09:26:52;3.70;;;2.00;;
42124;SDS011;27787;44.594;11.046;2022-08-03T09:29:36;3.40;;;2.22;;
42124;SDS011;27787;44.594;11.046;2022-08-03T09:32:22;3.47;;;2.05;;
42124;SDS011;27787;44.594;11.046;2022-08-03T09:35:07;4.72;;;1.83;;
42124;SDS011;27787;44.594;11.046;2022-08-03T09:38:07;3.97;;;1.80;;
42124;SDS011;27787;44.594;11.046;2022-08-03T09:43:45;3.47;;;1.80;;
42124;SDS011;27787;44.594;11.046;2022-08-03T09:46:29;2.15;;;1.90;;
42124;SDS011;27787;44.594;11.046;2022-08-03T09:52:10;7.60;;;2.05;;
42124;SDS011;27787;44.594;11.046;2022-08-03T09:54:56;3.83;;;1.90;;
42124;SDS011;27787;44.594;11.046;2022-08-03T09:57:42;3.30;;;2.08;;
42124;SDS011;27787;44.594;11.046;2022-08-03T10:00:30;4.22;;;2.00;;
42124;SDS011;27787;44.594;11.046;2022-08-03T10:03:14;4.10;;;1.92;;
42124;SDS011;27787;44.594;11.046;2022-08-03T10:05:59;1.92;;;1.60;;
42124;SDS011;27787;44.594;11.046;2022-08-03T10:09:09;2.70;;;1.60;;
42124;SDS011;27787;44.594;11.046;2022-08-03T10:11:54;2.65;;;1.75;;
42124;SDS011;27787;44.594;11.046;2022-08-03T10:14:39;1.70;;;1.60;;
42124;SDS011;27787;44.594;11.046;2022-08-03T10:17:25;3.50;;;1.70;;
42124;SDS011;27787;44.594;11.046;2022-08-03T10:20:09;3.05;;;1.55;;
42124;SDS011;27787;44.594;11.046;2022-08-03T10:22:54;3.00;;;1.58;;
42124;SDS011;27787;44.594;11.046;2022-08-03T10:25:39;2.97;;;1.60;;
42124;SDS011;27787;44.594;11.046;2022-08-03T10:28:26;2.05;;;1.70;;
42124;SDS011;27787;44.594;11.046;2022-08-03T10:31:19;2.83;;;1.80;;
42124;SDS011;27787;44.594;11.046;2022-08-03T10:34:21;2.63;;;1.98;;
42124;SDS011;27787;44.594;11.046;2022-08-03T10:37:08;1.90;;;1.67;;
42124;SDS011;27787;44.594;11.046;2022-08-03T10:39:55;3.83;;;1.60;;
42124;SDS011;27787;44.594;11.046;2022-08-03T10:42:42;1.60;;;1.40;;
42124;SDS011;27787;44.594;11.046;2022-08-03T10:45:28;2.33;;;1.40;;
42124;SDS011;27787;44.594;11.046;2022-08-03T10:48:16;3.97;;;1.95;;
42124;SDS011;27787;44.594;11.046;2022-08-03T10:51:02;2.85;;;1.52;;
42124;SDS011;27787;44.594;11.046;2022-08-03T10:53:47;3.47;;;1.85;;
42124;SDS011;27787;44.594;11.046;2022-08-03T11:05:47;1.40;;;1.30;;
42124;SDS011;27787;44.594;11.046;2022-08-03T11:08:32;2.40;;;1.30;;
42124;SDS011;27787;44.594;11.046;2022-08-03T11:14:08;1.88;;;1.40;;
42124;SDS011;27787;44.594;11.046;2022-08-03T11:17:07;2.65;;;1.63;;
42124;SDS011;27787;44.594;11.046;2022-08-03T11:19:52;2.08;;;1.42;;
42124;SDS011;27787;44.594;11.046;2022-08-03T11:22:46;1.95;;;1.40;;
42124;SDS011;27787;44.594;11.046;2022-08-03T11:25:54;2.90;;;1.70;;
42124;SDS011;27787;44.594;11.046;2022-08-03T11:28:51;3.58;;;1.42;;
42124;SDS011;27787;44.594;11.046;2022-08-03T11:34:20;3.40;;;1.42;;
42124;SDS011;27787;44.594;11.046;2022-08-03T11:37:17;2.08;;;1.50;;
42124;SDS011;27787;44.594;11.046;2022-08-03T11:40:02;2.70;;;1.65;;
42124;SDS011;27787;44.594;11.046;2022-08-03T11:42:47;1.95;;;1.38;;
42124;SDS011;27787;44.594;11.046;2022-08-03T11:45:31;3.35;;;1.60;;
42124;SDS011;27787;44.594;11.046;2022-08-03T11:48:16;3.55;;;1.75;;
42124;SDS011;27787;44.594;11.046;2022-08-03T11:51:01;3.00;;;1.40;;
42124;SDS011;27787;44.594;11.046;2022-08-03T11:53:49;4.70;;;1.50;;
42124;SDS011;27787;44.594;11.046;2022-08-03T11:56:45;5.38;;;1.50;;
42124;SDS011;27787;44.594;11.046;2022-08-03T11:59:31;1.98;;;1.50;;
42124;SDS011;27787;44.594;11.046;2022-08-03T12:02:17;2.88;;;1.50;;
42124;SDS011;27787;44.594;11.046;2022-08-03T12:05:01;1.92;;;1.23;;
42124;SDS011;27787;44.594;11.046;2022-08-03T12:07:46;4.70;;;1.40;;
42124;SDS011;27787;44.594;11.046;2022-08-03T12:10:30;3.07;;;1.50;;
42124;SDS011;27787;44.594;11.046;2022-08-03T12:13:15;2.08;;;1.40;;
42124;SDS011;27787;44.594;11.046;2022-08-03T12:16:00;1.98;;;1.50;;
42124;SDS011;27787;44.594;11.046;2022-08-03T12:18:45;3.92;;;1.50;;
42124;SDS011;27787;44.594;11.046;2022-08-03T12:21:47;2.22;;;1.50;;
42124;SDS011;27787;44.594;11.046;2022-08-03T12:24:40;1.60;;;1.30;;
42124;SDS011;27787;44.594;11.046;2022-08-03T12:27:25;3.25;;;1.42;;
42124;SDS011;27787;44.594;11.046;2022-08-03T12:30:13;2.05;;;1.38;;
42124;SDS011;27787;44.594;11.046;2022-08-03T12:35:42;2.28;;;1.30;;
42124;SDS011;27787;44.594;11.046;2022-08-03T12:38:26;1.98;;;1.20;;
42124;SDS011;27787;44.594;11.046;2022-08-03T12:41:10;3.17;;;1.23;;
42124;SDS011;27787;44.594;11.046;2022-08-03T12:43:57;3.45;;;1.48;;
42124;SDS011;27787;44.594;11.046;2022-08-03T12:46:41;6.03;;;1.50;;
42124;SDS011;27787;44.594;11.046;2022-08-03T12:49:26;3.63;;;1.48;;
42124;SDS011;27787;44.594;11.046;2022-08-03T12:52:12;2.03;;;1.42;;
42124;SDS011;27787;44.594;11.046;2022-08-03T12:54:58;1.60;;;1.50;;
42124;SDS011;27787;44.594;11.046;2022-08-03T12:57:43;7.35;;;2.05;;
42124;SDS011;27787;44.594;11.046;2022-08-03T13:00:28;13.65;;;1.90;;
42124;SDS011;27787;44.594;11.046;2022-08-03T13:03:12;2.60;;;1.50;;
42124;SDS011;27787;44.594;11.046;2022-08-03T13:05:57;2.47;;;1.70;;
42124;SDS011;27787;44.594;11.046;2022-08-03T13:08:42;2.03;;;1.50;;
42124;SDS011;27787;44.594;11.046;2022-08-03T13:11:27;7.07;;;1.77;;
42124;SDS011;27787;44.594;11.046;2022-08-03T13:14:11;2.92;;;1.50;;
42124;SDS011;27787;44.594;11.046;2022-08-03T13:16:56;1.95;;;1.70;;
42124;SDS011;27787;44.594;11.046;2022-08-03T13:19:40;1.58;;;1.48;;
42124;SDS011;27787;44.594;11.046;2022-08-03T13:25:11;4.25;;;1.60;;
42124;SDS011;27787;44.594;11.046;2022-08-03T13:27:58;1.73;;;1.50;;
42124;SDS011;27787;44.594;11.046;2022-08-03T13:30:43;1.55;;;1.40;;
42124;SDS011;27787;44.594;11.046;2022-08-03T13:33:27;2.38;;;1.65;;
42124;SDS011;27787;44.594;11.046;2022-08-03T13:36:11;1.98;;;1.30;;
42124;SDS011;27787;44.594;11.046;2022-08-03T13:38:55;2.90;;;1.58;;
42124;SDS011;27787;44.594;11.046;2022-08-03T13:41:40;2.13;;;1.50;;
42124;SDS011;27787;44.594;11.046;2022-08-03T13:44:24;1.40;;;1.30;;
42124;SDS011;27787;44.594;11.046;2022-08-03T13:47:08;4.77;;;1.60;;
42124;SDS011;27787;44.594;11.046;2022-08-03T13:49:53;1.67;;;1.42;;
42124;SDS011;27787;44.594;11.046;2022-08-03T13:52:37;2.72;;;1.65;;
42124;SDS011;27787;44.594;11.046;2022-08-03T13:55:22;2.40;;;1.42;;
42124;SDS011;27787;44.594;11.046;2022-08-03T13:58:06;3.72;;;1.50;;
42124;SDS011;27787;44.594;11.046;2022-08-03T14:00:54;1.70;;;1.23;;
42124;SDS011;27787;44.594;11.046;2022-08-03T14:03:39;1.70;;;1.48;;
42124;SDS011;27787;44.594;11.046;2022-08-03T14:06:23;3.40;;;1.60;;
42124;SDS011;27787;44.594;11.046;2022-08-03T14:09:08;3.33;;;1.33;;
42124;SDS011;27787;44.594;11.046;2022-08-03T14:11:52;2.67;;;1.93;;
42124;SDS011;27787;44.594;11.046;2022-08-03T14:14:37;1.98;;;1.52;;
42124;SDS011;27787;44.594;11.046;2022-08-03T14:17:21;3.38;;;1.45;;
42124;SDS011;27787;44.594;11.046;2022-08-03T14:20:06;2.35;;;1.73;;
42124;SDS011;27787;44.594;11.046;2022-08-03T14:22:51;2.42;;;1.70;;
42124;SDS011;27787;44.594;11.046;2022-08-03T14:25:36;3.25;;;1.80;;
42124;SDS011;27787;44.594;11.046;2022-08-03T14:28:20;2.35;;;1.80;;
42124;SDS011;27787;44.594;11.046;2022-08-03T14:31:06;9.70;;;1.75;;
42124;SDS011;27787;44.594;11.046;2022-08-03T14:33:50;8.02;;;1.60;;
42124;SDS011;27787;44.594;11.046;2022-08-03T14:36:35;2.40;;;1.50;;
42124;SDS011;27787;44.594;11.046;2022-08-03T14:39:19;1.65;;;1.50;;
42124;SDS011;27787;44.594;11.046;2022-08-03T14:42:03;2.22;;;1.60;;
42124;SDS011;27787;44.594;11.046;2022-08-03T14:44:48;1.60;;;1.40;;
42124;SDS011;27787;44.594;11.046;2022-08-03T14:47:32;4.47;;;1.65;;
42124;SDS011;27787;44.594;11.046;2022-08-03T14:50:16;1.70;;;1.50;;
42124;SDS011;27787;44.594;11.046;2022-08-03T14:53:00;2.95;;;1.50;;
42124;SDS011;27787;44.594;11.046;2022-08-03T14:55:44;1.63;;;1.30;;
42124;SDS011;27787;44.594;11.046;2022-08-03T14:58:30;2.92;;;1.70;;
42124;SDS011;27787;44.594;11.046;2022-08-03T15:01:15;2.33;;;1.50;;
42124;SDS011;27787;44.594;11.046;2022-08-03T15:03:59;3.42;;;1.60;;
42124;SDS011;27787;44.594;11.046;2022-08-03T15:06:43;1.70;;;1.48;;
42124;SDS011;27787;44.594;11.046;2022-08-03T15:09:27;2.22;;;1.70;;
42124;SDS011;27787;44.594;11.046;2022-08-03T15:12:11;2.35;;;1.33;;
42124;SDS011;27787;44.594;11.046;2022-08-03T15:14:55;3.77;;;1.47;;
42124;SDS011;27787;44.594;11.046;2022-08-03T15:17:39;5.80;;;1.50;;
42124;SDS011;27787;44.594;11.046;2022-08-03T15:20:23;2.95;;;1.50;;
42124;SDS011;27787;44.594;11.046;2022-08-03T15:23:07;1.75;;;1.48;;
42124;SDS011;27787;44.594;11.046;2022-08-03T15:25:52;3.28;;;1.73;;
42124;SDS011;27787;44.594;11.046;2022-08-03T15:28:36;2.55;;;1.70;;
42124;SDS011;27787;44.594;11.046;2022-08-03T15:31:21;4.85;;;1.40;;
42124;SDS011;27787;44.594;11.046;2022-08-03T15:34:06;1.98;;;1.50;;
42124;SDS011;27787;44.594;11.046;2022-08-03T15:36:50;1.60;;;1.45;;
42124;SDS011;27787;44.594;11.046;2022-08-03T15:39:34;1.50;;;1.38;;
42124;SDS011;27787;44.594;11.046;2022-08-03T15:42:18;2.33;;;1.45;;
42124;SDS011;27787;44.594;11.046;2022-08-03T15:45:02;2.10;;;1.20;;
42124;SDS011;27787;44.594;11.046;2022-08-03T15:47:47;4.10;;;1.20;;
42124;SDS011;27787;44.594;11.046;2022-08-03T15:50:31;2.42;;;1.63;;
42124;SDS011;27787;44.594;11.046;2022-08-03T15:53:16;1.73;;;1.33;;
42124;SDS011;27787;44.594;11.046;2022-08-03T15:56:00;6.28;;;1.60;;
42124;SDS011;27787;44.594;11.046;2022-08-03T15:58:46;2.30;;;1.40;;
42124;SDS011;27787;44.594;11.046;2022-08-03T16:01:30;1.63;;;1.40;;
42124;SDS011;27787;44.594;11.046;2022-08-03T16:04:14;1.65;;;1.30;;
42124;SDS011;27787;44.594;11.046;2022-08-03T16:06:58;4.97;;;1.50;;
42124;SDS011;27787;44.594;11.046;2022-08-03T16:09:42;2.13;;;1.65;;
42124;SDS011;27787;44.594;11.046;2022-08-03T16:12:27;12.40;;;1.40;;
42124;SDS011;27787;44.594;11.046;2022-08-03T16:15:11;1.90;;;1.38;;
42124;SDS011;27787;44.594;11.046;2022-08-03T16:17:56;12.45;;;1.67;;
42124;SDS011;27787;44.594;11.046;2022-08-03T16:20:41;3.20;;;1.20;;
42124;SDS011;27787;44.594;11.046;2022-08-03T16:23:25;2.13;;;1.23;;
42124;SDS011;27787;44.594;11.046;2022-08-03T16:26:10;4.07;;;1.58;;
42124;SDS011;27787;44.594;11.046;2022-08-03T16:28:54;5.35;;;1.50;;
42124;SDS011;27787;44.594;11.046;2022-08-03T16:31:39;4.18;;;1.40;;
42124;SDS011;27787;44.594;11.046;2022-08-03T16:34:23;3.72;;;1.40;;
42124;SDS011;27787;44.594;11.046;2022-08-03T16:37:08;1.83;;;1.35;;
42124;SDS011;27787;44.594;11.046;2022-08-03T16:39:52;1.55;;;1.35;;
42124;SDS011;27787;44.594;11.046;2022-08-03T16:42:37;4.55;;;1.48;;
42124;SDS011;27787;44.594;11.046;2022-08-03T16:45:21;1.70;;;1.42;;
42124;SDS011;27787;44.594;11.046;2022-08-03T16:48:06;3.92;;;1.75;;
42124;SDS011;27787;44.594;11.046;2022-08-03T16:50:50;1.33;;;1.20;;
42124;SDS011;27787;44.594;11.046;2022-08-03T16:53:34;3.90;;;1.63;;
42124;SDS011;27787;44.594;11.046;2022-08-03T16:56:18;2.45;;;1.23;;
42124;SDS011;27787;44.594;11.046;2022-08-03T16:59:03;1.98;;;1.40;;
42124;SDS011;27787;44.594;11.046;2022-08-03T17:01:47;1.40;;;1.30;;
42124;SDS011;27787;44.594;11.046;2022-08-03T17:04:32;1.38;;;1.27;;
42124;SDS011;27787;44.594;11.046;2022-08-03T17:07:17;2.03;;;1.45;;
42124;SDS011;27787;44.594;11.046;2022-08-03T17:10:02;2.38;;;1.30;;
42124;SDS011;27787;44.594;11.046;2022-08-03T17:12:47;2.72;;;1.50;;
42124;SDS011;27787;44.594;11.046;2022-08-03T17:15:31;5.78;;;1.20;;
42124;SDS011;27787;44.594;11.046;2022-08-03T17:18:18;1.50;;;1.40;;